Time;durP1;ratioP1;P1;durP2;ratioP2;P2;SDS_P1;SDS_P2;PMS_P1;PMS_P2;Temp;Humidity;BMP_temperature;BMP_pressure;BME280_temperature;BME280_humidity;BME280_pressure;Samples;Min_cycle;Max_cycle;Signal;HPM_P1;HPM_P2
2023/03/17 00:01:41;;;;;;;6.22;3.78;;;8.20;64.20;;;;;;5072502;28;20062;-75
2023/03/17 00:04:10;;;;;;;6.13;3.75;;;8.20;64.10;;;;;;5087020;28;20093;-75
2023/03/17 00:06:37;;;;;;;6.53;3.85;;;8.20;64.00;;;;;;5069444;28;20549;-75
2023/03/17 00:09:03;;;;;;;6.78;4.20;;;8.20;63.90;;;;;;5065329;28;20341;-74
2023/03/17 00:11:28;;;;;;;5.18;3.55;;;8.20;63.80;;;;;;5094828;27;20032;-75
2023/03/17 00:13:54;;;;;;;4.85;3.25;;;8.20;63.80;;;;;;5107195;28;20047;-75
2023/03/17 00:16:35;;;;;;;6.40;3.72;;;8.20;63.70;;;;;;5078469;28;20035;-75
2023/03/17 00:19:01;;;;;;;6.97;3.92;;;8.20;63.60;;;;;;5109974;27;20032;-75
2023/03/17 00:21:33;;;;;;;6.95;3.50;;;8.20;63.60;;;;;;5114931;27;20042;-75
2023/03/17 00:23:59;;;;;;;7.45;3.88;;;8.30;63.50;;;;;;5095419;28;20137;-74
2023/03/17 00:26:25;;;;;;;6.82;3.42;;;8.30;63.50;;;;;;5078878;28;20043;-75
2023/03/17 00:28:53;;;;;;;5.90;3.78;;;8.30;63.40;;;;;;5077910;28;20055;-75
2023/03/17 00:31:24;;;;;;;7.68;3.75;;;8.30;63.40;;;;;;5078333;28;20047;-75
2023/03/17 00:33:52;;;;;;;4.65;3.28;;;8.30;63.40;;;;;;5108671;28;20047;-74
2023/03/17 00:36:26;;;;;;;5.68;2.97;;;8.30;63.30;;;;;;5074734;28;20403;-74
2023/03/17 00:38:52;;;;;;;5.38;3.50;;;8.30;63.30;;;;;;5095293;28;20052;-75
2023/03/17 00:41:18;;;;;;;6.72;3.65;;;8.30;63.30;;;;;;5079709;27;20035;-74
2023/03/17 00:43:44;;;;;;;6.75;3.42;;;8.30;63.20;;;;;;5078683;28;20104;-74
2023/03/17 00:46:22;;;;;;;6.78;3.60;;;8.30;63.20;;;;;;5094989;28;20494;-74
2023/03/17 00:48:48;;;;;;;6.82;3.85;;;8.30;63.10;;;;;;5077982;28;20043;-75
2023/03/17 00:51:16;;;;;;;7.63;3.78;;;8.30;63.10;;;;;;5078638;28;20035;-74
2023/03/17 00:53:43;;;;;;;6.40;3.50;;;8.30;63.20;;;;;;5098332;28;20039;-74
2023/03/17 00:56:15;;;;;;;5.43;3.58;;;8.30;63.10;;;;;;5097040;28;20031;-74
2023/03/17 00:58:41;;;;;;;6.57;3.60;;;8.30;63.00;;;;;;5094911;28;20051;-75
2023/03/17 01:01:07;;;;;;;6.35;3.50;;;8.20;63.00;;;;;;5094909;28;20028;-74
2023/03/17 01:03:34;;;;;;;8.48;3.90;;;8.20;63.10;;;;;;5077989;28;20039;-74
2023/03/17 01:06:01;;;;;;;6.70;4.07;;;8.20;63.10;;;;;;5094758;28;20043;-75
2023/03/17 01:08:28;;;;;;;4.97;3.35;;;8.20;63.10;;;;;;5078157;28;20483;-74
2023/03/17 01:10:55;;;;;;;5.05;3.35;;;8.20;63.20;;;;;;5094916;28;20050;-74
2023/03/17 01:13:21;;;;;;;4.93;3.60;;;8.20;63.30;;;;;;5077099;28;20411;-74
2023/03/17 01:15:49;;;;;;;4.97;3.17;;;8.20;63.30;;;;;;5092765;28;20040;-75
2023/03/17 01:18:16;;;;;;;7.32;3.63;;;8.20;63.20;;;;;;5061628;28;20119;-74
2023/03/17 01:20:43;;;;;;;6.43;3.85;;;8.20;63.20;;;;;;5078591;28;20039;-74
2023/03/17 01:23:10;;;;;;;5.68;3.25;;;8.20;63.20;;;;;;5097142;28;20039;-75
2023/03/17 01:25:37;;;;;;;5.43;3.63;;;8.20;63.20;;;;;;5098763;28;20035;-75
2023/03/17 01:28:04;;;;;;;6.38;3.60;;;8.20;63.10;;;;;;5098374;27;20062;-75
2023/03/17 01:30:33;;;;;;;6.55;3.78;;;8.20;63.10;;;;;;5098186;28;20046;-74
2023/03/17 01:32:59;;;;;;;8.57;3.75;;;8.20;63.10;;;;;;5096359;27;20055;-74
2023/03/17 01:35:28;;;;;;;6.80;3.63;;;8.20;63.00;;;;;;5118889;27;20035;-75
2023/03/17 01:37:56;;;;;;;7.05;3.75;;;8.20;63.20;;;;;;5108291;28;20082;-75
2023/03/17 01:40:34;;;;;;;6.40;3.42;;;8.20;63.10;;;;;;5098487;28;20123;-74
2023/03/17 01:43:07;;;;;;;6.57;3.58;;;8.20;63.00;;;;;;5081436;28;20094;-74
2023/03/17 01:46:13;;;;;;;4.30;3.30;;;8.20;63.00;;;;;;5099911;28;20134;-74
2023/03/17 01:48:48;;;;;;;7.03;3.88;;;8.20;62.90;;;;;;5095160;28;20391;-75
2023/03/17 01:51:19;;;;;;;;;;;8.20;62.90;;;;;;5061695;28;20051;-74
2023/03/17 01:53:48;;;;;;;5.40;4.03;;;8.20;62.90;;;;;;5097314;27;19920;-74
2023/03/17 01:56:15;;;;;;;5.97;3.88;;;8.10;62.90;;;;;;5114595;28;20058;-74
2023/03/17 01:58:43;;;;;;;6.25;3.65;;;8.10;62.90;;;;;;5097681;28;20040;-75
2023/03/17 02:01:09;;;;;;;5.90;3.90;;;8.10;62.90;;;;;;5097855;28;20130;-74
2023/03/17 02:03:35;;;;;;;13.13;4.10;;;8.10;62.80;;;;;;5064876;27;20050;-74
2023/03/17 02:06:01;;;;;;;8.57;4.07;;;8.10;62.70;;;;;;5132043;27;20122;-75
2023/03/17 02:08:27;;;;;;;6.22;3.85;;;8.10;62.70;;;;;;5092459;28;20394;-74
2023/03/17 02:10:55;;;;;;;5.75;3.65;;;8.10;62.80;;;;;;5111999;28;20051;-74
2023/03/17 02:13:21;;;;;;;7.25;4.18;;;8.10;62.80;;;;;;5111053;28;20047;-74
2023/03/17 02:15:49;;;;;;;7.85;4.05;;;8.20;62.90;;;;;;5104363;28;20040;-74
2023/03/17 02:18:17;;;;;;;7.40;3.80;;;8.10;62.90;;;;;;5097639;28;20556;-74
2023/03/17 02:20:45;;;;;;;7.15;3.90;;;8.10;62.80;;;;;;5094192;28;20028;-74
2023/03/17 02:23:16;;;;;;;5.38;3.65;;;8.10;62.90;;;;;;5077355;28;20044;-74
2023/03/17 02:25:44;;;;;;;5.55;3.25;;;8.10;63.00;;;;;;5097976;28;20091;-74
2023/03/17 02:28:15;;;;;;;6.38;3.65;;;8.10;63.00;;;;;;5096741;28;20070;-75
2023/03/17 02:30:41;;;;;;;5.75;3.75;;;8.10;63.00;;;;;;5080754;28;20043;-74
2023/03/17 02:33:08;;;;;;;7.32;3.78;;;8.10;63.00;;;;;;5080205;28;20495;-74
2023/03/17 02:35:34;;;;;;;5.57;3.70;;;8.10;63.00;;;;;;5093795;28;20047;-74
2023/03/17 02:38:00;;;;;;;6.45;3.55;;;8.10;63.10;;;;;;5111126;28;20457;-74
2023/03/17 02:40:26;;;;;;;4.72;3.55;;;8.10;63.10;;;;;;5088498;28;20108;-74
2023/03/17 02:42:53;;;;;;;6.57;3.67;;;8.10;63.20;;;;;;5080048;28;20166;-74
2023/03/17 02:45:19;;;;;;;5.28;3.63;;;8.10;63.20;;;;;;5097679;28;20504;-74
2023/03/17 02:47:45;;;;;;;8.80;4.43;;;8.10;63.20;;;;;;5097449;28;20044;-74
2023/03/17 02:50:23;;;;;;;5.97;3.33;;;8.10;63.20;;;;;;5097023;28;20499;-74
2023/03/17 02:52:50;;;;;;;7.00;3.95;;;8.10;63.20;;;;;;5096934;28;20122;-74
2023/03/17 02:55:16;;;;;;;6.97;3.38;;;8.10;63.30;;;;;;5080067;28;20608;-74
2023/03/17 02:57:42;;;;;;;6.38;3.78;;;8.10;63.30;;;;;;5096837;28;20479;-74
2023/03/17 03:00:09;;;;;;;7.55;4.43;;;8.10;63.30;;;;;;5079936;28;20051;-74
2023/03/17 03:02:37;;;;;;;6.55;3.75;;;8.10;63.40;;;;;;5096534;28;20049;-74
2023/03/17 03:05:04;;;;;;;6.20;4.20;;;8.10;63.40;;;;;;5080262;28;20430;-74
2023/03/17 03:07:31;;;;;;;5.05;3.60;;;8.10;63.40;;;;;;5079748;28;20092;-74
2023/03/17 03:09:57;;;;;;;5.03;3.47;;;8.10;63.30;;;;;;5063893;28;20131;-74
2023/03/17 03:12:23;;;;;;;4.78;2.88;;;8.10;63.30;;;;;;5069072;27;20118;-74
2023/03/17 03:14:48;;;;;;;6.00;4.05;;;8.10;63.20;;;;;;5085463;28;20066;-74
2023/03/17 03:17:15;;;;;;;4.97;3.30;;;8.10;63.30;;;;;;5059463;28;20063;-74
2023/03/17 03:19:41;;;;;;;5.55;3.75;;;8.10;63.30;;;;;;5076235;28;20494;-74
2023/03/17 03:22:07;;;;;;;7.55;3.65;;;8.10;63.30;;;;;;5087954;28;20421;-74
2023/03/17 03:24:33;;;;;;;6.60;3.80;;;8.10;63.30;;;;;;5079176;28;20040;-74
2023/03/17 03:26:59;;;;;;;6.28;3.67;;;8.10;63.40;;;;;;5079528;28;20035;-74
2023/03/17 03:29:24;;;;;;;5.63;3.70;;;8.10;63.40;;;;;;5130332;27;20126;-74
2023/03/17 03:31:50;;;;;;;8.20;3.42;;;8.10;63.40;;;;;;5079331;28;20039;-75
2023/03/17 03:34:16;;;;;;;8.38;3.28;;;8.10;63.30;;;;;;5122987;27;20149;-74
2023/03/17 03:36:41;;;;;;;6.28;3.53;;;8.10;63.40;;;;;;5095983;28;20462;-74
2023/03/17 03:39:07;;;;;;;7.43;3.85;;;8.10;63.40;;;;;;5095826;27;20126;-74
2023/03/17 03:41:33;;;;;;;6.75;3.30;;;8.10;63.30;;;;;;5107182;28;20088;-74
2023/03/17 03:43:59;;;;;;;6.03;3.45;;;8.10;63.40;;;;;;5080299;28;20047;-74
2023/03/17 03:46:25;;;;;;;4.97;3.20;;;8.10;63.50;;;;;;5079183;28;20040;-74
2023/03/17 03:48:51;;;;;;;6.80;3.60;;;8.10;63.50;;;;;;5079066;28;20467;-74
2023/03/17 03:51:17;;;;;;;5.32;3.10;;;8.10;63.40;;;;;;5078101;28;20042;-74
2023/03/17 03:53:43;;;;;;;6.32;3.72;;;8.10;63.40;;;;;;5124127;27;20040;-74
2023/03/17 03:56:08;;;;;;;7.10;3.58;;;8.10;63.30;;;;;;5115025;27;20432;-74
2023/03/17 03:58:34;;;;;;;5.68;3.85;;;8.10;63.40;;;;;;5062363;28;20382;-74
2023/03/17 04:01:04;;;;;;;5.10;3.55;;;8.10;63.40;;;;;;5078855;28;20055;-74
2023/03/17 04:03:30;;;;;;;8.40;3.53;;;8.10;63.40;;;;;;5096035;28;20536;-74
2023/03/17 04:05:56;;;;;;;5.18;3.45;;;8.10;63.40;;;;;;5078947;28;20072;-74
2023/03/17 04:08:22;;;;;;;5.30;3.05;;;8.10;63.50;;;;;;5095744;28;20053;-74
2023/03/17 04:10:47;;;;;;;6.60;3.25;;;8.10;63.60;;;;;;5082774;28;20044;-74
2023/03/17 04:13:14;;;;;;;6.22;3.78;;;8.00;63.50;;;;;;5094296;28;20036;-74
2023/03/17 04:15:39;;;;;;;4.63;3.17;;;8.00;63.50;;;;;;5098775;28;20040;-74
2023/03/17 04:18:05;;;;;;;5.00;3.20;;;8.00;63.50;;;;;;5092313;28;20042;-74
2023/03/17 04:20:31;;;;;;;5.70;3.88;;;8.00;63.50;;;;;;5112271;28;20066;-74
2023/03/17 04:22:56;;;;;;;5.80;2.95;;;8.10;63.50;;;;;;5078850;28;20040;-74
2023/03/17 04:25:22;;;;;;;5.00;3.45;;;8.00;63.50;;;;;;5080260;27;20487;-74
2023/03/17 04:27:48;;;;;;;5.20;2.88;;;8.10;63.60;;;;;;5092740;28;20508;-74
2023/03/17 04:30:15;;;;;;;5.07;3.22;;;8.00;63.50;;;;;;5079810;28;20070;-74
2023/03/17 04:32:42;;;;;;;6.15;3.42;;;8.00;63.60;;;;;;5079211;28;20112;-74
2023/03/17 04:35:14;;;;;;;5.60;3.13;;;8.00;63.60;;;;;;5063832;28;20114;-74
2023/03/17 04:37:40;;;;;;;5.00;3.28;;;8.00;63.60;;;;;;5119235;27;20471;-74
2023/03/17 04:40:08;;;;;;;5.10;3.47;;;8.00;63.60;;;;;;5075411;28;20510;-74
2023/03/17 04:42:35;;;;;;;5.70;3.20;;;8.00;63.60;;;;;;5104506;28;20052;-74
2023/03/17 04:45:01;;;;;;;6.72;3.13;;;8.00;63.60;;;;;;5095085;28;20039;-74
2023/03/17 04:47:27;;;;;;;5.65;2.60;;;8.00;63.50;;;;;;5097681;28;20118;-73
2023/03/17 04:49:52;;;;;;;5.78;2.92;;;8.00;63.50;;;;;;5052967;28;20170;-74
2023/03/17 04:52:18;;;;;;;4.45;2.85;;;8.00;63.50;;;;;;5093532;28;20071;-74
2023/03/17 04:54:44;;;;;;;4.55;3.05;;;8.00;63.40;;;;;;5119249;28;20047;-74
2023/03/17 04:57:10;;;;;;;4.60;3.05;;;8.00;63.40;;;;;;5109290;28;20039;-74
2023/03/17 04:59:35;;;;;;;6.57;3.45;;;8.00;63.30;;;;;;5098360;28;20031;-74
2023/03/17 05:02:01;;;;;;;6.10;3.25;;;8.00;63.40;;;;;;5115305;28;20127;-75
2023/03/17 05:04:27;;;;;;;5.32;2.97;;;8.00;63.40;;;;;;5088476;28;20061;-75
2023/03/17 05:06:52;;;;;;;4.78;2.95;;;8.00;63.40;;;;;;5094831;28;20097;-74
2023/03/17 05:09:18;;;;;;;6.47;3.30;;;8.00;63.40;;;;;;5095125;28;20045;-74
2023/03/17 05:11:44;;;;;;;4.82;2.60;;;8.00;63.40;;;;;;5111667;28;20028;-74
2023/03/17 05:14:10;;;;;;;5.32;3.13;;;8.00;63.40;;;;;;5077956;28;20486;-74
2023/03/17 05:16:35;;;;;;;3.75;2.47;;;8.00;63.30;;;;;;5094815;28;20050;-74
2023/03/17 05:19:01;;;;;;;6.15;2.63;;;8.00;63.30;;;;;;5057341;28;20039;-74
2023/03/17 05:21:27;;;;;;;4.10;2.88;;;8.10;63.30;;;;;;5078652;28;20088;-74
2023/03/17 05:23:53;;;;;;;6.07;2.83;;;8.10;63.30;;;;;;5081345;28;20046;-74
2023/03/17 05:26:18;;;;;;;6.47;3.05;;;8.10;63.30;;;;;;5085835;28;20047;-74
2023/03/17 05:28:44;;;;;;;5.70;2.97;;;8.10;63.30;;;;;;5094772;28;20426;-74
2023/03/17 05:31:10;;;;;;;4.97;3.05;;;8.10;63.30;;;;;;5077436;28;20043;-74
2023/03/17 05:33:36;;;;;;;4.93;3.45;;;8.10;63.20;;;;;;5094366;28;20047;-75
2023/03/17 05:36:02;;;;;;;5.85;3.67;;;8.10;63.20;;;;;;5094863;28;20043;-75
2023/03/17 05:38:28;;;;;;;5.15;2.90;;;8.10;63.20;;;;;;5094650;28;20085;-75
2023/03/17 05:40:54;;;;;;;5.25;2.90;;;8.10;63.20;;;;;;5094505;28;20040;-75
2023/03/17 05:43:20;;;;;;;4.63;2.97;;;8.10;63.30;;;;;;5077905;28;20677;-75
2023/03/17 05:45:48;;;;;;;4.13;2.60;;;8.10;63.30;;;;;;5077640;28;20073;-75
2023/03/17 05:48:14;;;;;;;4.72;2.90;;;8.10;63.30;;;;;;5095020;28;20128;-75
2023/03/17 05:50:40;;;;;;;4.35;2.53;;;8.10;63.40;;;;;;5128559;28;20127;-75
2023/03/17 05:53:06;;;;;;;4.97;2.95;;;8.10;63.40;;;;;;5090915;28;20475;-76
2023/03/17 05:55:31;;;;;;;5.25;3.25;;;8.10;63.40;;;;;;5094343;28;20042;-75
2023/03/17 05:57:57;;;;;;;5.40;3.00;;;8.10;63.40;;;;;;5108689;28;20453;-74
2023/03/17 06:00:23;;;;;;;6.10;2.55;;;8.10;63.50;;;;;;5076885;28;20040;-74
2023/03/17 06:02:49;;;;;;;5.00;2.95;;;8.10;63.50;;;;;;5078051;28;20067;-74
2023/03/17 06:05:15;;;;;;;10.40;3.45;;;8.10;63.50;;;;;;5081190;28;20067;-74
2023/03/17 06:07:41;;;;;;;5.32;3.08;;;8.10;63.60;;;;;;5098048;28;20554;-75
2023/03/17 06:10:08;;;;;;;4.47;3.08;;;8.10;63.60;;;;;;5098042;28;20479;-75
2023/03/17 06:12:34;;;;;;;7.25;3.05;;;8.10;63.60;;;;;;5097700;27;20470;-74
2023/03/17 06:15:00;;;;;;;4.28;3.03;;;8.20;63.60;;;;;;5082157;28;20122;-76
2023/03/17 06:17:25;;;;;;;5.07;3.10;;;8.10;63.60;;;;;;5070041;28;20095;-76
2023/03/17 06:19:51;;;;;;;6.25;3.60;;;8.10;63.60;;;;;;5091837;28;20835;-76
2023/03/17 06:22:17;;;;;;;5.25;2.80;;;8.20;63.70;;;;;;5080751;27;20050;-76
2023/03/17 06:24:42;;;;;;;4.90;3.10;;;8.20;63.80;;;;;;5081127;28;20040;-75
2023/03/17 06:27:09;;;;;;;5.95;3.22;;;8.10;63.80;;;;;;5080614;28;20035;-75
2023/03/17 06:29:36;;;;;;;5.47;3.10;;;8.20;63.80;;;;;;5080687;28;20161;-74
2023/03/17 06:32:03;;;;;;;5.68;3.10;;;8.20;63.80;;;;;;5079991;28;20043;-74
2023/03/17 06:34:29;;;;;;;5.18;3.03;;;8.20;63.90;;;;;;5085403;28;20055;-75
2023/03/17 06:36:55;;;;;;;5.38;3.53;;;8.20;63.80;;;;;;5062378;28;20032;-76
2023/03/17 06:39:21;;;;;;;6.78;2.92;;;8.20;63.80;;;;;;5093795;28;20411;-76
2023/03/17 06:41:47;;;;;;;5.40;3.35;;;8.20;63.80;;;;;;5091540;28;20032;-75
2023/03/17 06:44:13;;;;;;;7.75;3.70;;;8.20;63.80;;;;;;5130516;27;20035;-75
2023/03/17 06:46:39;;;;;;;6.05;3.22;;;8.30;63.90;;;;;;5097094;28;20039;-75
2023/03/17 06:49:06;;;;;;;4.80;3.20;;;8.30;64.00;;;;;;5080448;28;20066;-75
2023/03/17 06:51:34;;;;;;;4.47;3.10;;;8.30;64.20;;;;;;5108947;28;20039;-75
2023/03/17 06:54:00;;;;;;;8.32;4.35;;;8.30;64.20;;;;;;5110284;27;20072;-76
2023/03/17 06:56:25;;;;;;;6.95;3.35;;;8.30;64.30;;;;;;5085313;27;20035;-76
2023/03/17 06:58:51;;;;;;;5.53;3.55;;;8.30;64.40;;;;;;5066893;27;20039;-75
2023/03/17 07:01:17;;;;;;;3.92;2.85;;;8.30;64.50;;;;;;5100691;27;20062;-75
2023/03/17 07:03:44;;;;;;;6.68;3.20;;;8.40;64.60;;;;;;5076580;28;20137;-75
2023/03/17 07:06:10;;;;;;;5.38;3.33;;;8.30;64.60;;;;;;5087596;28;20047;-75
2023/03/17 07:08:35;;;;;;;6.30;3.42;;;8.40;64.70;;;;;;5096650;28;20387;-75
2023/03/17 07:11:03;;;;;;;6.15;3.67;;;8.40;64.50;;;;;;5130638;27;20047;-75
2023/03/17 07:13:34;;;;;;;4.63;3.17;;;8.40;64.20;;;;;;5096017;28;20114;-76
2023/03/17 07:16:01;;;;;;;4.53;3.08;;;8.40;64.10;;;;;;5095891;28;20047;-75
2023/03/17 07:18:30;;;;;;;5.30;3.13;;;8.50;64.10;;;;;;5096531;28;20043;-75
2023/03/17 07:20:57;;;;;;;5.15;3.30;;;8.50;64.20;;;;;;5096534;28;20100;-77
2023/03/17 07:23:23;;;;;;;5.30;3.53;;;8.50;64.20;;;;;;5096743;28;20368;-75
2023/03/17 07:25:50;;;;;;;6.22;3.45;;;8.60;64.20;;;;;;5079807;28;20168;-75
2023/03/17 07:28:17;;;;;;;5.22;3.10;;;8.60;64.10;;;;;;5098918;27;20042;-76
2023/03/17 07:30:45;;;;;;;5.72;2.95;;;8.70;64.10;;;;;;5110334;28;20043;-76
2023/03/17 07:33:16;;;;;;;5.28;3.05;;;8.70;64.10;;;;;;5092728;28;20063;-74
2023/03/17 07:35:42;;;;;;;3.45;2.50;;;8.80;64.00;;;;;;5103218;27;20060;-74
2023/03/17 07:38:10;;;;;;;4.63;3.38;;;8.80;63.90;;;;;;5099867;27;20159;-74
2023/03/17 07:40:37;;;;;;;3.83;2.92;;;8.90;63.60;;;;;;5100132;27;20035;-74
2023/03/17 07:43:03;;;;;;;5.18;2.80;;;8.90;63.50;;;;;;5116611;27;20046;-75
2023/03/17 07:45:29;;;;;;;10.38;3.33;;;9.00;63.50;;;;;;5110985;28;20035;-74
2023/03/17 07:47:54;;;;;;;6.07;4.30;;;9.00;63.30;;;;;;5095981;28;20054;-74
2023/03/17 07:50:20;;;;;;;6.40;3.15;;;9.00;63.00;;;;;;5095775;28;20096;-75
2023/03/17 07:52:46;;;;;;;4.00;2.85;;;9.10;62.90;;;;;;5079109;28;20049;-74
2023/03/17 07:55:11;;;;;;;6.13;2.80;;;9.20;62.70;;;;;;5062542;28;20036;-74
2023/03/17 07:57:38;;;;;;;6.05;3.45;;;9.30;62.60;;;;;;5079242;28;20041;-75
2023/03/17 08:00:09;;;;;;;5.63;3.55;;;9.40;62.40;;;;;;5095861;28;20036;-74
2023/03/17 08:02:35;;;;;;;5.90;3.25;;;9.40;62.60;;;;;;5079150;28;20047;-75
2023/03/17 08:05:02;;;;;;;5.78;3.15;;;9.50;62.50;;;;;;5078929;28;20044;-75
2023/03/17 08:07:28;;;;;;;5.60;3.03;;;9.60;62.40;;;;;;5095963;28;20097;-75
2023/03/17 08:09:53;;;;;;;6.07;3.20;;;9.70;62.20;;;;;;5095598;28;20085;-75
2023/03/17 08:12:19;;;;;;;5.97;3.25;;;9.80;62.00;;;;;;5095523;28;20047;-75
2023/03/17 08:14:45;;;;;;;4.13;2.83;;;9.90;61.70;;;;;;5078536;28;20036;-75
2023/03/17 08:17:11;;;;;;;5.90;3.35;;;9.90;61.50;;;;;;5129945;27;20035;-75
2023/03/17 08:19:36;;;;;;;4.18;3.13;;;9.90;61.50;;;;;;5129498;27;20490;-75
2023/03/17 08:22:02;;;;;;;4.78;2.80;;;10.00;61.40;;;;;;5129552;27;20069;-75
2023/03/17 08:24:28;;;;;;;6.15;3.28;;;10.00;61.40;;;;;;5129489;27;20046;-75
2023/03/17 08:26:54;;;;;;;5.40;3.13;;;10.10;61.30;;;;;;5091318;28;20035;-75
2023/03/17 08:29:19;;;;;;;4.03;2.80;;;10.10;61.20;;;;;;5109568;28;20406;-75
2023/03/17 08:31:45;;;;;;;6.95;3.40;;;10.20;61.10;;;;;;5093595;28;20036;-75
2023/03/17 08:34:11;;;;;;;5.05;3.10;;;10.20;61.20;;;;;;5095183;28;20380;-77
2023/03/17 08:36:37;;;;;;;6.50;3.30;;;10.30;61.40;;;;;;5095323;28;20040;-75
2023/03/17 08:39:04;;;;;;;4.70;2.60;;;10.30;61.30;;;;;;5078261;28;20043;-75
2023/03/17 08:41:30;;;;;;;5.03;2.65;;;10.40;61.50;;;;;;5078748;28;20110;-75
2023/03/17 08:43:57;;;;;;;6.30;3.58;;;10.50;61.60;;;;;;5078629;28;20043;-75
2023/03/17 08:46:26;;;;;;;4.65;2.80;;;10.60;61.70;;;;;;5095077;28;20035;-76
2023/03/17 08:48:55;;;;;;;5.53;3.25;;;10.80;61.90;;;;;;5078263;28;20047;-76
2023/03/17 08:51:23;;;;;;;5.85;3.05;;;11.00;62.10;;;;;;5078365;28;20131;-76
2023/03/17 08:53:50;;;;;;;6.38;3.45;;;11.20;61.30;;;;;;5094933;28;20057;-76
2023/03/17 08:56:15;;;;;;;5.10;2.90;;;11.40;60.70;;;;;;5095209;28;20040;-76
2023/03/17 08:58:42;;;;;;;5.47;3.08;;;11.60;60.60;;;;;;5077898;28;20089;-76
2023/03/17 09:01:09;;;;;;;6.45;3.00;;;11.90;59.60;;;;;;5095533;28;20402;-76
2023/03/17 09:03:37;;;;;;;4.65;2.90;;;12.10;59.20;;;;;;5078939;28;20051;-82
2023/03/17 09:06:05;;;;;;;7.07;4.45;;;12.20;58.40;;;;;;5078778;28;20043;-82
2023/03/17 09:08:33;;;;;;;4.05;2.92;;;12.40;57.60;;;;;;5089619;28;20059;-82
2023/03/17 09:11:00;;;;;;;4.97;2.90;;;12.60;56.90;;;;;;5073475;28;20403;-82
2023/03/17 09:13:26;;;;;;;6.80;3.55;;;12.70;56.30;;;;;;5101912;28;20376;-82
2023/03/17 09:15:52;;;;;;;4.53;3.20;;;12.80;56.00;;;;;;5068997;28;20039;-82
2023/03/17 09:18:18;;;;;;;4.30;3.30;;;12.90;56.00;;;;;;5068215;28;20035;-82
2023/03/17 09:20:43;;;;;;;6.28;3.17;;;13.10;55.90;;;;;;5096776;28;20047;-82
2023/03/17 09:23:10;;;;;;;5.60;3.00;;;13.20;55.50;;;;;;5095217;28;20044;-82
2023/03/17 09:25:37;;;;;;;5.22;3.30;;;13.30;55.40;;;;;;5078636;28;20433;-82
2023/03/17 09:28:03;;;;;;;4.35;2.90;;;13.40;55.60;;;;;;5095298;28;20039;-82
2023/03/17 09:30:29;;;;;;;5.25;3.42;;;13.60;55.30;;;;;;5078443;28;20050;-81
2023/03/17 09:32:55;;;;;;;5.93;3.08;;;13.70;55.40;;;;;;5061577;28;20047;-82
2023/03/17 09:35:21;;;;;;;6.50;3.20;;;14.00;55.10;;;;;;5078342;28;20114;-82
2023/03/17 09:37:47;;;;;;;6.90;3.90;;;14.20;54.90;;;;;;5064192;28;20391;-82
2023/03/17 09:40:17;;;;;;;5.72;3.35;;;14.40;54.60;;;;;;5098898;28;20031;-83
2023/03/17 09:43:21;;;;;;;4.57;2.67;;;14.70;54.00;;;;;;5081955;28;20047;-82
2023/03/17 09:45:47;;;;;;;5.63;3.10;;;14.90;53.70;;;;;;4998135;28;20551;-82
2023/03/17 09:48:22;;;;;;;5.43;2.88;;;15.10;52.90;;;;;;4981985;28;20128;-82
2023/03/17 09:51:00;;;;;;;5.07;3.00;;;15.30;52.30;;;;;;5035621;28;20057;-82
2023/03/17 09:53:32;;;;;;;4.78;2.85;;;15.50;52.80;;;;;;5098276;28;20534;-81
2023/03/17 09:56:04;;;;;;;4.65;2.92;;;15.70;51.60;;;;;;5081551;28;20136;-79
2023/03/17 09:58:35;;;;;;;4.63;3.10;;;15.80;51.30;;;;;;5073661;28;20051;-82
2023/03/17 10:01:04;;;;;;;6.00;3.72;;;16.00;50.00;;;;;;5061559;28;20043;-82
2023/03/17 10:03:31;;;;;;;6.00;3.67;;;16.10;49.10;;;;;;5061684;28;20036;-82
2023/03/17 10:06:15;;;;;;;4.68;3.40;;;16.10;48.50;;;;;;5078094;28;20036;-82
2023/03/17 10:09:13;;;;;;;5.68;3.70;;;16.20;48.20;;;;;;5095432;28;20383;-81
2023/03/17 10:11:47;;;;;;;5.80;3.40;;;16.20;48.30;;;;;;5123121;27;20427;-81
2023/03/17 10:14:20;;;;;;;8.18;4.07;;;16.20;47.90;;;;;;5098276;28;20043;-81
2023/03/17 10:17:16;;;;;;;6.15;3.60;;;16.20;47.90;;;;;;5081681;28;20436;-82
2023/03/17 10:19:56;;;;;;;5.82;3.13;;;16.20;47.90;;;;;;5081945;28;20506;-81
2023/03/17 10:22:36;;;;;;;6.07;3.30;;;16.20;49.20;;;;;;5081278;28;20039;-81
2023/03/17 10:25:17;;;;;;;6.47;4.10;;;16.20;48.50;;;;;;5081406;28;20100;-81
2023/03/17 10:27:50;;;;;;;5.50;3.50;;;16.30;48.90;;;;;;5081555;28;20067;-81
2023/03/17 10:30:19;;;;;;;6.00;3.97;;;16.30;49.50;;;;;;5081268;28;20073;-82
2023/03/17 10:32:47;;;;;;;5.65;4.15;;;16.40;50.00;;;;;;5081229;28;20125;-82
2023/03/17 10:35:15;;;;;;;6.07;3.80;;;16.50;49.50;;;;;;5081192;28;20043;-81
2023/03/17 10:37:41;;;;;;;6.53;3.28;;;16.60;49.30;;;;;;5081219;28;20045;-83
2023/03/17 10:40:20;;;;;;;5.57;3.78;;;16.60;49.00;;;;;;5081158;28;20035;-80
2023/03/17 10:42:48;;;;;;;4.40;3.38;;;16.80;49.50;;;;;;5093010;28;20043;-80
2023/03/17 10:45:28;;;;;;;5.57;3.78;;;16.80;48.80;;;;;;5073923;28;20552;-82
2023/03/17 10:47:56;;;;;;;4.88;3.55;;;16.90;49.40;;;;;;5071799;28;20051;-82
2023/03/17 10:50:31;;;;;;;6.55;3.80;;;16.90;49.80;;;;;;5090479;28;20131;-82
2023/03/17 10:53:03;;;;;;;7.80;4.20;;;17.00;50.20;;;;;;5090205;28;20491;-81
2023/03/17 10:55:43;;;;;;;7.28;3.92;;;17.00;50.00;;;;;;5072863;28;20038;-81
2023/03/17 10:58:09;;;;;;;6.20;3.85;;;17.10;50.00;;;;;;5089907;28;20036;-82
2023/03/17 11:00:37;;;;;;;6.47;4.20;;;17.20;49.70;;;;;;5087769;28;20038;-82
2023/03/17 11:03:25;;;;;;;5.63;3.70;;;17.20;48.80;;;;;;5072402;28;20047;-82
2023/03/17 11:06:04;;;;;;;6.07;3.78;;;17.40;49.20;;;;;;5089951;28;20040;-82
2023/03/17 11:08:34;;;;;;;8.65;4.13;;;17.50;49.20;;;;;;5071817;28;20043;-82
2023/03/17 11:11:04;;;;;;;5.75;3.78;;;17.50;49.00;;;;;;5072494;28;20042;-82
2023/03/17 11:13:30;;;;;;;5.28;3.97;;;17.60;49.20;;;;;;5072570;28;20120;-82
2023/03/17 11:16:20;;;;;;;7.85;4.43;;;17.60;49.40;;;;;;5089906;28;20116;-81
2023/03/17 11:18:47;;;;;;;9.48;4.40;;;17.70;49.80;;;;;;5077437;28;20066;-81
2023/03/17 11:21:51;;;;;;;5.95;4.32;;;17.80;49.40;;;;;;5106564;28;20032;-82
2023/03/17 11:24:57;;;;;;;4.95;3.38;;;17.80;49.50;;;;;;5089212;28;20047;-82
2023/03/17 11:27:33;;;;;;;6.88;4.28;;;17.90;50.50;;;;;;5073301;28;20039;-82
2023/03/17 11:30:13;;;;;;;5.07;3.60;;;17.90;49.80;;;;;;5072220;28;20070;-82
2023/03/17 11:32:42;;;;;;;5.93;3.53;;;17.90;49.80;;;;;;5103268;28;20050;-81
2023/03/17 11:35:23;;;;;;;6.00;3.80;;;18.00;50.10;;;;;;5119730;27;20535;-82
2023/03/17 11:37:54;;;;;;;6.35;4.10;;;18.00;49.80;;;;;;5070346;28;20040;-83
2023/03/17 11:40:33;;;;;;;5.80;3.97;;;18.10;49.10;;;;;;5119960;27;20481;-83
2023/03/17 11:43:33;;;;;;;6.03;4.25;;;18.10;48.40;;;;;;5088647;28;20541;-83
2023/03/17 11:46:18;;;;;;;5.80;3.65;;;18.20;49.90;;;;;;5056998;28;20127;-83
2023/03/17 11:49:02;;;;;;;6.68;4.00;;;18.20;49.30;;;;;;5119306;27;20114;-83
2023/03/17 11:51:29;;;;;;;5.07;3.70;;;18.20;48.40;;;;;;5088003;28;20039;-83
2023/03/17 11:54:15;;;;;;;5.38;3.95;;;18.20;48.00;;;;;;5072991;28;20036;-84
2023/03/17 11:56:50;;;;;;;5.38;3.63;;;18.20;48.20;;;;;;5088861;28;20040;-83
2023/03/17 11:59:51;;;;;;;7.10;3.65;;;18.20;48.40;;;;;;5087572;28;20547;-83
2023/03/17 12:02:29;;;;;;;4.53;3.67;;;18.20;48.90;;;;;;5089679;28;20055;-81
2023/03/17 12:05:06;;;;;;;4.38;3.50;;;18.20;48.50;;;;;;5088544;28;20043;-81
2023/03/17 12:07:53;;;;;;;6.38;4.25;;;18.20;48.90;;;;;;5071808;28;20061;-81
2023/03/17 12:10:37;;;;;;;5.80;3.58;;;18.20;48.60;;;;;;5089660;28;20035;-82
2023/03/17 12:13:10;;;;;;;6.40;4.60;;;18.20;48.90;;;;;;5105777;28;20027;-81
2023/03/17 12:15:47;;;;;;;6.47;4.85;;;18.20;48.40;;;;;;5071386;28;20853;-82
2023/03/17 12:18:26;;;;;;;7.20;4.03;;;18.30;48.40;;;;;;5070048;28;20487;-82
2023/03/17 12:21:10;;;;;;;7.95;4.20;;;18.30;48.10;;;;;;5069874;28;20035;-82
2023/03/17 12:23:55;;;;;;;7.75;4.35;;;18.30;48.00;;;;;;5070068;28;20106;-83
2023/03/17 12:27:07;;;;;;;6.45;4.22;;;18.30;48.30;;;;;;5071480;28;20657;-82
2023/03/17 12:29:42;;;;;;;5.32;4.43;;;18.30;49.20;;;;;;5010285;28;20626;-82
2023/03/17 12:32:43;;;;;;;8.73;4.32;;;18.30;48.80;;;;;;5065848;28;20138;-81
2023/03/17 12:35:30;;;;;;;6.50;4.22;;;18.30;49.00;;;;;;5070880;28;20050;-82
2023/03/17 12:38:00;;;;;;;7.47;4.07;;;18.30;49.00;;;;;;5071722;28;20039;-82
2023/03/17 12:41:04;;;;;;;7.38;4.45;;;18.30;48.20;;;;;;5086927;28;20039;-82
2023/03/17 12:43:53;;;;;;;5.95;4.10;;;18.30;48.10;;;;;;5087197;28;20451;-82
2023/03/17 12:46:28;;;;;;;6.13;4.25;;;18.40;48.70;;;;;;5087636;28;20071;-81
2023/03/17 12:49:12;;;;;;;4.93;3.97;;;18.30;48.20;;;;;;5070064;28;20036;-81
2023/03/17 12:51:44;;;;;;;;;;;18.30;48.50;;;;;;5073117;28;20084;-79
2023/03/17 12:54:20;;;;;;;5.25;3.92;;;18.30;49.40;;;;;;5087651;28;19967;-79
2023/03/17 12:56:48;;;;;;;8.20;4.68;;;18.30;48.60;;;;;;5118416;28;20677;-79
2023/03/17 12:59:24;;;;;;;5.40;4.22;;;18.30;48.60;;;;;;5088111;28;20054;-80
2023/03/17 13:02:11;;;;;;;8.45;4.03;;;18.40;48.40;;;;;;5070330;28;20034;-80
2023/03/17 13:04:37;;;;;;;5.40;4.53;;;18.40;49.10;;;;;;5088487;28;20024;-81
2023/03/17 13:07:17;;;;;;;9.93;4.88;;;18.40;48.70;;;;;;5073607;28;20489;-81